sensor_id;sensor_type;location;lat;lon;timestamp;pressure;altitude;pressure_sealevel;temperature;humidity
34241;BME280;20503;50.200;19.508;2023-05-14T00:01:58;102023.10;;;10.33;77.60
34241;BME280;20503;50.200;19.508;2023-05-14T00:07:06;102010.14;;;10.27;77.75
34241;BME280;20503;50.200;19.508;2023-05-14T00:12:13;102008.24;;;10.28;77.91
34241;BME280;20503;50.200;19.508;2023-05-14T00:17:21;102015.41;;;10.37;77.54
34241;BME280;20503;50.200;19.508;2023-05-14T00:22:28;102010.44;;;10.40;77.30
34241;BME280;20503;50.200;19.508;2023-05-14T00:27:36;102012.16;;;10.33;77.72
34241;BME280;20503;50.200;19.508;2023-05-14T00:32:44;102017.33;;;10.20;78.68
34241;BME280;20503;50.200;19.508;2023-05-14T00:37:51;102013.28;;;10.08;79.55
34241;BME280;20503;50.200;19.508;2023-05-14T00:42:59;102016.85;;;10.17;78.50
34241;BME280;20503;50.200;19.508;2023-05-14T00:48:07;102013.23;;;10.24;77.54
34241;BME280;20503;50.200;19.508;2023-05-14T00:53:15;102011.13;;;10.34;76.61
34241;BME280;20503;50.200;19.508;2023-05-14T00:58:23;102004.59;;;10.43;75.85
34241;BME280;20503;50.200;19.508;2023-05-14T01:03:30;102015.41;;;10.37;76.38
34241;BME280;20503;50.200;19.508;2023-05-14T01:08:49;102015.66;;;10.11;78.67
34241;BME280;20503;50.200;19.508;2023-05-14T01:14:02;102015.34;;;10.06;78.92
34241;BME280;20503;50.200;19.508;2023-05-14T01:19:09;102002.86;;;9.80;81.64
34241;BME280;20503;50.200;19.508;2023-05-14T01:24:12;102003.23;;;9.61;83.81
34241;BME280;20503;50.200;19.508;2023-05-14T01:29:22;102009.05;;;9.58;84.50
34241;BME280;20503;50.200;19.508;2023-05-14T01:34:27;101998.61;;;9.77;83.50
34241;BME280;20503;50.200;19.508;2023-05-14T01:39:31;101994.84;;;9.70;83.97
34241;BME280;20503;50.200;19.508;2023-05-14T15:27:31;101421.98;;;18.89;48.67
34241;BME280;20503;50.200;19.508;2023-05-14T15:32:33;101414.13;;;18.86;49.28
34241;BME280;20503;50.200;19.508;2023-05-14T15:37:39;101412.29;;;18.63;50.41
34241;BME280;20503;50.200;19.508;2023-05-14T15:42:42;101399.71;;;18.72;51.20
34241;BME280;20503;50.200;19.508;2023-05-14T15:47:44;101399.66;;;18.44;51.85
34241;BME280;20503;50.200;19.508;2023-05-14T15:52:46;101395.47;;;18.42;52.39
34241;BME280;20503;50.200;19.508;2023-05-14T15:57:47;101396.78;;;18.39;52.40
34241;BME280;20503;50.200;19.508;2023-05-14T16:02:50;101383.05;;;18.33;51.91
34241;BME280;20503;50.200;19.508;2023-05-14T16:07:53;101359.55;;;18.35;52.62
34241;BME280;20503;50.200;19.508;2023-05-14T16:12:54;101360.05;;;18.32;52.57
34241;BME280;20503;50.200;19.508;2023-05-14T16:17:55;101352.56;;;18.21;53.42
34241;BME280;20503;50.200;19.508;2023-05-14T16:22:56;101349.78;;;18.21;53.41
34241;BME280;20503;50.200;19.508;2023-05-14T16:27:59;101352.59;;;18.10;54.41
34241;BME280;20503;50.200;19.508;2023-05-14T16:33:00;101361.10;;;18.20;53.65
34241;BME280;20503;50.200;19.508;2023-05-14T16:38:02;101347.41;;;18.13;54.16
34241;BME280;20503;50.200;19.508;2023-05-14T16:43:04;101352.81;;;18.08;54.40
34241;BME280;20503;50.200;19.508;2023-05-14T16:48:06;101334.89;;;17.99;55.08
34241;BME280;20503;50.200;19.508;2023-05-14T16:56:18;101349.11;;;17.91;55.15
34241;BME280;20503;50.200;19.508;2023-05-14T17:01:26;101355.52;;;17.80;55.36
34241;BME280;20503;50.200;19.508;2023-05-14T17:06:35;101342.38;;;17.76;56.23
34241;BME280;20503;50.200;19.508;2023-05-14T17:11:42;101344.44;;;17.80;56.22
34241;BME280;20503;50.200;19.508;2023-05-14T17:16:50;101335.98;;;17.64;56.57
34241;BME280;20503;50.200;19.508;2023-05-14T17:21:57;101332.14;;;17.65;56.63
34241;BME280;20503;50.200;19.508;2023-05-14T17:27:06;101317.70;;;17.51;57.66
34241;BME280;20503;50.200;19.508;2023-05-14T17:32:14;101309.74;;;17.43;58.75
34241;BME280;20503;50.200;19.508;2023-05-14T17:37:24;101322.38;;;17.39;59.37
34241;BME280;20503;50.200;19.508;2023-05-14T17:42:29;101311.76;;;17.25;60.65
34241;BME280;20503;50.200;19.508;2023-05-14T17:47:37;101308.92;;;17.02;62.82
34241;BME280;20503;50.200;19.508;2023-05-14T17:52:44;101293.50;;;16.83;65.71
34241;BME280;20503;50.200;19.508;2023-05-14T17:57:55;101300.52;;;16.56;65.76
34241;BME280;20503;50.200;19.508;2023-05-14T18:03:00;101294.35;;;16.54;70.06
34241;BME280;20503;50.200;19.508;2023-05-14T18:08:08;101306.83;;;16.45;72.62
34241;BME280;20503;50.200;19.508;2023-05-14T18:13:16;101309.38;;;15.75;80.43
34241;BME280;20503;50.200;19.508;2023-05-14T18:18:23;101298.84;;;14.99;88.50
34241;BME280;20503;50.200;19.508;2023-05-14T18:23:31;101325.84;;;14.59;100.00
34241;BME280;20503;50.200;19.508;2023-05-14T18:28:40;101330.09;;;14.05;100.00
34241;BME280;20503;50.200;19.508;2023-05-14T18:33:48;101326.25;;;14.12;100.00
34241;BME280;20503;50.200;19.508;2023-05-14T18:38:55;101334.13;;;14.09;100.00
34241;BME280;20503;50.200;19.508;2023-05-14T18:44:03;101349.83;;;13.95;100.00
34241;BME280;20503;50.200;19.508;2023-05-14T18:49:11;101327.82;;;13.89;100.00
34241;BME280;20503;50.200;19.508;2023-05-14T18:54:19;101319.30;;;14.10;100.00
34241;BME280;20503;50.200;19.508;2023-05-14T18:59:26;101340.98;;;13.80;100.00
34241;BME280;20503;50.200;19.508;2023-05-14T19:04:34;101349.68;;;13.71;100.00
34241;BME280;20503;50.200;19.508;2023-05-14T19:09:42;101355.81;;;13.73;100.00
34241;BME280;20503;50.200;19.508;2023-05-14T19:14:50;101351.59;;;13.77;100.00
34241;BME280;20503;50.200;19.508;2023-05-14T19:19:58;101350.52;;;13.84;100.00
34241;BME280;20503;50.200;19.508;2023-05-14T19:25:06;101353.73;;;13.68;100.00
34241;BME280;20503;50.200;19.508;2023-05-14T19:30:14;101334.47;;;13.68;100.00
34241;BME280;20503;50.200;19.508;2023-05-14T19:35:22;101330.24;;;13.53;100.00
34241;BME280;20503;50.200;19.508;2023-05-14T19:40:30;101322.87;;;13.47;100.00
34241;BME280;20503;50.200;19.508;2023-05-14T19:45:38;101324.09;;;13.70;100.00
34241;BME280;20503;50.200;19.508;2023-05-14T19:50:48;101328.73;;;13.70;100.00
34241;BME280;20503;50.200;19.508;2023-05-14T19:55:57;101333.43;;;13.50;100.00
34241;BME280;20503;50.200;19.508;2023-05-14T20:01:02;101314.42;;;13.10;100.00
34241;BME280;20503;50.200;19.508;2023-05-14T20:06:10;101328.99;;;13.42;100.00
34241;BME280;20503;50.200;19.508;2023-05-14T20:11:18;101323.30;;;13.37;100.00
34241;BME280;20503;50.200;19.508;2023-05-14T20:16:26;101325.41;;;13.35;100.00
34241;BME280;20503;50.200;19.508;2023-05-14T20:21:34;101322.88;;;13.27;100.00
34241;BME280;20503;50.200;19.508;2023-05-14T20:26:42;101306.80;;;13.24;100.00
34241;BME280;20503;50.200;19.508;2023-05-14T20:31:50;101292.63;;;13.27;100.00
34241;BME280;20503;50.200;19.508;2023-05-14T20:36:59;101280.13;;;13.31;100.00
34241;BME280;20503;50.200;19.508;2023-05-14T20:42:06;101245.45;;;13.30;100.00
34241;BME280;20503;50.200;19.508;2023-05-14T20:47:14;101227.52;;;13.15;100.00
34241;BME280;20503;50.200;19.508;2023-05-14T20:52:22;101218.65;;;13.07;100.00
34241;BME280;20503;50.200;19.508;2023-05-14T20:57:30;101195.61;;;13.01;100.00
34241;BME280;20503;50.200;19.508;2023-05-14T21:02:36;101167.28;;;12.88;100.00
34241;BME280;20503;50.200;19.508;2023-05-14T21:07:44;101151.41;;;12.90;100.00
34241;BME280;20503;50.200;19.508;2023-05-14T21:12:52;101140.66;;;12.75;100.00
34241;BME280;20503;50.200;19.508;2023-05-14T21:18:01;101113.84;;;12.77;100.00
34241;BME280;20503;50.200;19.508;2023-05-14T21:23:07;101097.12;;;12.79;100.00
34241;BME280;20503;50.200;19.508;2023-05-14T21:28:15;101112.34;;;12.75;100.00
34241;BME280;20503;50.200;19.508;2023-05-14T21:33:22;101102.84;;;12.77;100.00
34241;BME280;20503;50.200;19.508;2023-05-14T21:38:29;101109.85;;;12.60;100.00
34241;BME280;20503;50.200;19.508;2023-05-14T21:43:36;101109.86;;;12.54;100.00
34241;BME280;20503;50.200;19.508;2023-05-14T21:48:44;101101.19;;;12.44;100.00
34241;BME280;20503;50.200;19.508;2023-05-14T21:53:52;101084.09;;;12.42;100.00
34241;BME280;20503;50.200;19.508;2023-05-14T21:59:00;101076.91;;;12.34;100.00
34241;BME280;20503;50.200;19.508;2023-05-14T22:04:08;101075.86;;;12.29;100.00
34241;BME280;20503;50.200;19.508;2023-05-14T22:09:15;101063.63;;;12.25;100.00
34241;BME280;20503;50.200;19.508;2023-05-14T22:14:23;101043.98;;;12.21;100.00
34241;BME280;20503;50.200;19.508;2023-05-14T22:19:30;101046.30;;;12.18;100.00
34241;BME280;20503;50.200;19.508;2023-05-14T22:24:37;101041.87;;;12.17;100.00
34241;BME280;20503;50.200;19.508;2023-05-14T22:29:45;101037.43;;;12.16;100.00
34241;BME280;20503;50.200;19.508;2023-05-14T22:34:52;101031.95;;;12.16;100.00
34241;BME280;20503;50.200;19.508;2023-05-14T22:39:59;101006.43;;;12.15;100.00
34241;BME280;20503;50.200;19.508;2023-05-14T22:45:08;101018.66;;;12.13;100.00
34241;BME280;20503;50.200;19.508;2023-05-14T22:50:14;101015.27;;;12.17;100.00
34241;BME280;20503;50.200;19.508;2023-05-14T22:55:22;101004.93;;;12.19;100.00
34241;BME280;20503;50.200;19.508;2023-05-14T23:00:29;101012.74;;;12.16;100.00
34241;BME280;20503;50.200;19.508;2023-05-14T23:05:37;101003.25;;;12.18;100.00
34241;BME280;20503;50.200;19.508;2023-05-14T23:10:44;100997.13;;;12.16;100.00
34241;BME280;20503;50.200;19.508;2023-05-14T23:15:51;101002.83;;;12.02;100.00
34241;BME280;20503;50.200;19.508;2023-05-14T23:20:58;100968.88;;;11.96;100.00
34241;BME280;20503;50.200;19.508;2023-05-14T23:26:06;100954.30;;;11.89;100.00
34241;BME280;20503;50.200;19.508;2023-05-14T23:31:13;100951.13;;;11.86;100.00
34241;BME280;20503;50.200;19.508;2023-05-14T23:36:21;100935.34;;;11.81;100.00
34241;BME280;20503;50.200;19.508;2023-05-14T23:41:30;100918.46;;;11.71;100.00
34241;BME280;20503;50.200;19.508;2023-05-14T23:46:36;100919.09;;;11.67;100.00
34241;BME280;20503;50.200;19.508;2023-05-14T23:51:44;100915.72;;;11.65;100.00
34241;BME280;20503;50.200;19.508;2023-05-14T23:56:51;100917.84;;;11.63;100.00
